Time;durP1;ratioP1;P1;durP2;ratioP2;P2;SDS_P1;SDS_P2;PMS_P1;PMS_P2;Temp;Humidity;BMP_temperature;BMP_pressure;BME280_temperature;BME280_humidity;BME280_pressure;Samples;Min_cycle;Max_cycle;Signal;HPM_P1;HPM_P2
2021/04/02 00:00:29;;;;;;;10.13;4.67;;;10.00;99.60;;;;;;1883643;74;21073;-66
2021/04/02 00:02:57;;;;;;;9.73;4.47;;;10.00;99.40;;;;;;1880194;74;21513;-65
2021/04/02 00:05:25;;;;;;;11.12;4.45;;;10.00;99.50;;;;;;1872771;74;21524;-66
2021/04/02 00:07:52;;;;;;;8.98;4.20;;;10.00;99.30;;;;;;1892719;74;21129;-66
2021/04/02 00:10:22;;;;;;;8.55;4.28;;;10.00;99.30;;;;;;1871711;73;21118;-67
2021/04/02 00:12:50;;;;;;;9.88;4.17;;;10.00;99.40;;;;;;1882556;74;21261;-66
2021/04/02 00:15:20;;;;;;;9.83;4.00;;;10.00;99.30;;;;;;1877486;74;21015;-66
2021/04/02 00:17:48;;;;;;;7.20;3.60;;;10.00;99.30;;;;;;1874586;74;21785;-68
2021/04/02 00:20:18;;;;;;;7.83;3.72;;;10.00;99.30;;;;;;1886048;74;22275;-67
2021/04/02 00:22:47;;;;;;;7.78;3.62;;;10.00;99.20;;;;;;1881033;75;21159;-66
2021/04/02 00:25:15;;;;;;;7.97;4.10;;;10.00;99.00;;;;;;1879860;74;21078;-69
2021/04/02 00:27:43;;;;;;;12.20;4.33;;;10.00;99.20;;;;;;1872039;74;21165;-66
2021/04/02 00:30:14;;;;;;;9.38;4.75;;;10.00;99.30;;;;;;1874647;74;21201;-66
2021/04/02 00:32:42;;;;;;;10.08;4.12;;;9.90;99.30;;;;;;1875466;74;21641;-68
2021/04/02 00:35:12;;;;;;;9.93;4.65;;;9.90;99.30;;;;;;1879191;74;21127;-68
2021/04/02 00:37:41;;;;;;;5.25;3.72;;;9.80;99.40;;;;;;1876527;74;21369;-68
2021/04/02 00:40:12;;;;;;;9.85;4.10;;;9.80;99.20;;;;;;1877287;74;21155;-68
2021/04/02 00:42:39;;;;;;;8.53;3.70;;;9.80;99.30;;;;;;1873128;74;21590;-68
2021/04/02 00:45:08;;;;;;;9.13;4.10;;;9.70;99.40;;;;;;1870656;74;21106;-67
2021/04/02 00:47:35;;;;;;;5.30;3.92;;;9.70;99.40;;;;;;1877876;74;21164;-65
2021/04/02 00:50:15;;;;;;;8.35;4.12;;;9.70;99.50;;;;;;1892248;74;21102;-66
2021/04/02 00:52:42;;;;;;;10.58;4.75;;;9.70;99.40;;;;;;1872215;74;21650;-66
2021/04/02 00:55:12;;;;;;;8.33;4.12;;;9.60;99.60;;;;;;1873261;75;21034;-65
2021/04/02 00:57:39;;;;;;;6.33;4.05;;;9.60;99.50;;;;;;1881187;74;21129;-66
2021/04/02 01:00:10;;;;;;;10.78;4.58;;;9.60;99.40;;;;;;1865331;74;21121;-65
2021/04/02 01:02:39;;;;;;;6.05;3.70;;;9.60;99.50;;;;;;1886955;74;21101;-66
2021/04/02 01:05:09;;;;;;;12.03;4.33;;;9.60;99.70;;;;;;1881062;74;21114;-67
2021/04/02 01:07:37;;;;;;;6.60;4.10;;;9.60;99.70;;;;;;1881798;74;21173;-66
2021/04/02 01:10:08;;;;;;;9.45;4.53;;;9.60;99.80;;;;;;1879955;74;21106;-66
2021/04/02 01:12:36;;;;;;;7.40;4.28;;;9.60;99.90;;;;;;1878191;74;21133;-65
2021/04/02 01:15:09;;;;;;;10.93;4.65;;;9.50;99.90;;;;;;1874280;74;21082;-66
2021/04/02 01:17:38;;;;;;;12.05;4.75;;;9.50;99.90;;;;;;1842662;74;21259;-67
2021/04/02 01:20:07;;;;;;;9.88;4.20;;;9.50;99.90;;;;;;1890198;74;21113;-67
2021/04/02 01:22:34;;;;;;;6.42;4.20;;;9.40;99.80;;;;;;1874751;74;21129;-66
2021/04/02 01:25:20;;;;;;;10.53;5.08;;;9.40;99.90;;;;;;1876386;74;21125;-66
2021/04/02 01:28:02;;;;;;;10.10;4.85;;;9.40;99.80;;;;;;1881160;74;21542;-67
2021/04/02 01:30:30;;;;;;;6.65;4.50;;;9.40;99.90;;;;;;1871703;74;21202;-67
2021/04/02 01:32:59;;;;;;;7.92;4.03;;;9.40;99.90;;;;;;1884060;74;21520;-67
2021/04/02 01:35:48;;;;;;;9.53;4.05;;;9.40;99.80;;;;;;1879374;74;21104;-67
2021/04/02 01:38:21;;;;;;;6.35;3.87;;;9.30;99.90;;;;;;1944219;73;21207;-66
2021/04/02 01:40:51;;;;;;;7.67;4.40;;;9.30;99.80;;;;;;1940302;73;21198;-68
2021/04/02 01:43:40;;;;;;;9.73;4.85;;;9.30;99.70;;;;;;1990167;70;21724;-67
2021/04/02 01:46:09;;;;;;;6.80;4.10;;;9.30;99.80;;;;;;1913491;73;21112;-67
2021/04/02 01:48:39;;;;;;;7.67;3.83;;;9.30;99.90;;;;;;1955998;71;21161;-68
2021/04/02 01:51:08;;;;;;;10.05;4.60;;;9.20;99.90;;;;;;1956257;72;21038;-68
2021/04/02 01:53:41;;;;;;;6.70;4.37;;;9.20;99.90;;;;;;2005819;70;21105;-66
2021/04/02 01:56:09;;;;;;;8.58;4.20;;;9.20;99.90;;;;;;2011497;70;21090;-70
2021/04/02 01:58:39;;;;;;;8.55;4.83;;;9.20;99.90;;;;;;2003651;70;21186;-67
2021/04/02 02:01:07;;;;;;;9.63;4.42;;;9.20;99.90;;;;;;1995438;70;21124;-69
2021/04/02 02:03:37;;;;;;;7.17;4.70;;;9.20;99.90;;;;;;1992926;70;22165;-65
2021/04/02 02:06:08;;;;;;;8.25;4.75;;;9.20;99.90;;;;;;1997629;70;21166;-66
2021/04/02 02:08:36;;;;;;;10.63;4.80;;;9.20;99.90;;;;;;1994166;70;21136;-66
2021/04/02 02:11:10;;;;;;;8.38;4.87;;;9.20;99.90;;;;;;2002561;70;21077;-66
2021/04/02 02:13:40;;;;;;;9.70;5.28;;;9.20;99.90;;;;;;1994621;70;21081;-66
2021/04/02 02:16:10;;;;;;;6.78;4.45;;;9.10;99.90;;;;;;2000292;70;21057;-66
2021/04/02 02:18:39;;;;;;;7.62;4.92;;;9.00;99.90;;;;;;2004849;70;21129;-67
2021/04/02 02:21:10;;;;;;;7.40;4.35;;;9.00;99.90;;;;;;1996667;70;21457;-66
2021/04/02 02:23:45;;;;;;;8.93;4.30;;;9.00;99.90;;;;;;2006623;70;20979;-67
2021/04/02 02:26:14;;;;;;;8.70;4.55;;;9.00;99.90;;;;;;2005108;70;20986;-66
2021/04/02 02:28:41;;;;;;;8.83;4.90;;;8.90;99.90;;;;;;2007450;70;21050;-67
2021/04/02 02:31:11;;;;;;;7.05;4.70;;;8.90;99.90;;;;;;1996474;70;21049;-67
2021/04/02 02:33:39;;;;;;;7.40;4.78;;;8.90;99.90;;;;;;2005381;70;21022;-67
2021/04/02 02:36:07;;;;;;;9.10;4.90;;;8.90;99.90;;;;;;2003268;70;21745;-66
2021/04/02 02:38:35;;;;;;;7.42;4.92;;;8.90;99.90;;;;;;1998174;70;21101;-67
2021/04/02 02:41:03;;;;;;;10.88;5.70;;;8.90;99.90;;;;;;2007669;70;21131;-66
2021/04/02 02:43:32;;;;;;;10.88;5.50;;;8.90;99.90;;;;;;1996118;70;21058;-66
2021/04/02 02:45:59;;;;;;;10.90;5.62;;;8.90;99.90;;;;;;2002044;70;21093;-66
2021/04/02 02:48:27;;;;;;;9.75;5.03;;;8.90;99.90;;;;;;1999990;70;21153;-67
2021/04/02 02:50:57;;;;;;;10.63;5.67;;;8.90;99.90;;;;;;1997067;70;21565;-66
2021/04/02 02:53:27;;;;;;;8.45;5.85;;;8.90;99.90;;;;;;2000097;70;21077;-66
2021/04/02 02:55:55;;;;;;;12.33;6.17;;;8.90;99.90;;;;;;2009004;70;21100;-66
2021/04/02 02:58:25;;;;;;;11.38;6.62;;;8.80;99.90;;;;;;1993801;70;21574;-66
2021/04/02 03:00:54;;;;;;;7.75;5.65;;;8.80;99.90;;;;;;2007889;70;21139;-66
2021/04/02 03:03:23;;;;;;;8.63;5.75;;;8.90;99.90;;;;;;1992379;70;21496;-66
2021/04/02 03:05:52;;;;;;;8.00;5.62;;;8.80;99.90;;;;;;2001471;70;21198;-66
2021/04/02 03:08:25;;;;;;;10.35;5.67;;;8.80;99.90;;;;;;2001003;70;21135;-66
2021/04/02 03:10:54;;;;;;;11.63;6.20;;;8.80;99.90;;;;;;1997773;70;21081;-66
2021/04/02 03:13:24;;;;;;;9.85;5.92;;;8.80;99.90;;;;;;2013144;70;21896;-66
2021/04/02 03:15:54;;;;;;;7.85;5.42;;;8.80;99.90;;;;;;1979691;70;21053;-69
2021/04/02 03:18:23;;;;;;;10.38;6.03;;;8.80;99.90;;;;;;1799264;78;21274;-68
2021/04/02 03:20:51;;;;;;;10.65;5.90;;;8.70;99.90;;;;;;1814986;77;21162;-68
2021/04/02 03:23:19;;;;;;;8.73;5.25;;;8.80;99.90;;;;;;1794678;78;21120;-68
2021/04/02 03:25:50;;;;;;;8.73;5.65;;;8.70;99.90;;;;;;1813481;77;21562;-68
2021/04/02 03:28:20;;;;;;;11.30;6.60;;;8.70;99.90;;;;;;1844305;76;21190;-68
2021/04/02 03:30:48;;;;;;;8.80;6.10;;;8.60;99.90;;;;;;1839980;76;21241;-68
2021/04/02 03:33:21;;;;;;;11.65;6.50;;;8.60;99.90;;;;;;1839208;76;21096;-67
2021/04/02 03:35:49;;;;;;;14.55;7.62;;;8.60;99.90;;;;;;1843772;76;21125;-68
2021/04/02 03:38:21;;;;;;;16.27;8.95;;;8.50;99.90;;;;;;1842416;76;21558;-68
2021/04/02 03:40:51;;;;;;;16.32;9.50;;;8.60;99.90;;;;;;1844707;76;21074;-68
2021/04/02 03:43:20;;;;;;;19.77;10.13;;;8.70;99.90;;;;;;1843766;75;21474;-66
2021/04/02 03:45:50;;;;;;;21.30;9.98;;;8.70;99.90;;;;;;1851432;75;21180;-68
2021/04/02 03:48:20;;;;;;;15.30;9.15;;;8.80;99.90;;;;;;1847795;76;21170;-67
2021/04/02 03:50:50;;;;;;;13.32;8.90;;;8.70;99.90;;;;;;1845334;76;21069;-67
2021/04/02 03:53:36;;;;;;;14.98;8.53;;;8.70;99.90;;;;;;1846598;76;21053;-66
2021/04/02 03:56:06;;;;;;;12.95;7.92;;;8.70;99.90;;;;;;1772670;80;21610;-68
2021/04/02 03:58:35;;;;;;;15.05;8.00;;;8.80;99.90;;;;;;1841227;75;21165;-67
2021/04/02 04:01:11;;;;;;;11.73;7.40;;;8.70;99.90;;;;;;1845833;76;21703;-67
2021/04/02 04:03:41;;;;;;;10.48;6.95;;;8.70;99.90;;;;;;1842201;76;21178;-68
2021/04/02 04:06:12;;;;;;;12.63;7.28;;;8.80;99.90;;;;;;1838466;76;21155;-67
2021/04/02 04:08:41;;;;;;;11.22;6.22;;;8.90;99.90;;;;;;1843231;76;21135;-68
2021/04/02 04:11:11;;;;;;;7.95;5.15;;;8.90;99.90;;;;;;1844092;76;21104;-67
2021/04/02 04:13:41;;;;;;;9.18;5.67;;;9.00;99.90;;;;;;1841566;76;21238;-66
2021/04/02 04:16:11;;;;;;;8.95;5.40;;;9.00;99.90;;;;;;1842467;76;21207;-68
2021/04/02 04:18:40;;;;;;;9.90;5.00;;;9.00;99.90;;;;;;1846221;76;21069;-69
2021/04/02 04:21:08;;;;;;;11.65;4.92;;;9.00;99.90;;;;;;1843727;76;21123;-68
2021/04/02 04:23:38;;;;;;;9.58;5.03;;;9.00;99.90;;;;;;1845623;76;21590;-67
2021/04/02 04:26:08;;;;;;;10.88;5.25;;;9.00;99.90;;;;;;1836997;77;21271;-68
2021/04/02 04:28:37;;;;;;;9.75;4.92;;;9.00;99.90;;;;;;1846549;76;21124;-70
2021/04/02 04:31:08;;;;;;;9.65;4.30;;;9.00;99.90;;;;;;1839430;76;21245;-68
2021/04/02 04:33:38;;;;;;;8.23;4.20;;;9.10;99.90;;;;;;1844412;76;21562;-67
2021/04/02 04:36:08;;;;;;;10.50;3.90;;;9.10;99.90;;;;;;1839386;76;21214;-67
2021/04/02 04:38:38;;;;;;;14.18;4.37;;;9.10;99.90;;;;;;1844038;76;21116;-68
2021/04/02 04:41:07;;;;;;;10.82;4.10;;;9.20;99.90;;;;;;1844596;76;21198;-68
2021/04/02 04:43:36;;;;;;;8.60;4.60;;;9.20;99.90;;;;;;1841632;76;21058;-68
2021/04/02 04:46:04;;;;;;;9.60;3.77;;;9.30;99.90;;;;;;1845420;76;21335;-68
2021/04/02 04:48:32;;;;;;;9.38;3.35;;;9.30;99.90;;;;;;1846556;76;21190;-68
2021/04/02 04:50:59;;;;;;;9.30;3.52;;;9.30;99.90;;;;;;1842401;76;21078;-69
2021/04/02 04:53:30;;;;;;;13.95;4.17;;;9.30;99.90;;;;;;1845820;76;21131;-69
2021/04/02 04:56:00;;;;;;;10.65;3.33;;;9.40;99.90;;;;;;1840725;76;21152;-69
2021/04/02 04:58:31;;;;;;;7.47;3.10;;;9.40;99.90;;;;;;1846079;76;21135;-68
2021/04/02 05:01:05;;;;;;;7.85;3.02;;;9.40;99.90;;;;;;1849508;76;21570;-68
2021/04/02 05:03:32;;;;;;;9.08;2.60;;;9.40;99.90;;;;;;1843269;76;21118;-67
2021/04/02 05:06:01;;;;;;;10.85;3.02;;;9.40;99.90;;;;;;1843608;75;21198;-68
2021/04/02 05:08:32;;;;;;;12.07;2.83;;;9.50;99.90;;;;;;1841878;76;21137;-68
2021/04/02 05:11:01;;;;;;;12.90;3.37;;;9.50;99.90;;;;;;1837469;76;21120;-68
2021/04/02 05:13:32;;;;;;;11.03;3.00;;;9.50;99.90;;;;;;1839508;76;21188;-67
2021/04/02 05:16:00;;;;;;;9.68;2.60;;;9.50;99.90;;;;;;1844819;76;21518;-68
2021/04/02 05:18:29;;;;;;;13.15;3.08;;;9.60;99.90;;;;;;1843732;76;21159;-68
2021/04/02 05:20:57;;;;;;;11.05;2.80;;;9.60;99.90;;;;;;1845817;76;21021;-69
2021/04/02 05:23:24;;;;;;;10.93;3.12;;;9.60;99.90;;;;;;1846539;75;21100;-69
2021/04/02 05:25:52;;;;;;;11.90;3.52;;;9.70;99.90;;;;;;1847161;76;21187;-69
2021/04/02 05:28:19;;;;;;;10.08;3.17;;;9.70;99.90;;;;;;1844598;76;21300;-68
2021/04/02 05:30:47;;;;;;;12.58;3.08;;;9.70;99.90;;;;;;1842412;76;21049;-68
2021/04/02 05:33:15;;;;;;;13.15;3.45;;;9.70;99.90;;;;;;1841538;76;21080;-69
2021/04/02 05:35:42;;;;;;;11.10;2.90;;;9.80;99.90;;;;;;1845167;76;21624;-69
2021/04/02 05:38:10;;;;;;;14.40;3.20;;;9.80;99.90;;;;;;1845478;76;21086;-68
2021/04/02 05:40:37;;;;;;;14.00;3.27;;;9.80;99.90;;;;;;1841913;76;21697;-68
2021/04/02 05:43:27;;;;;;;15.60;3.65;;;9.80;99.90;;;;;;1840107;76;21119;-68
2021/04/02 05:45:56;;;;;;;14.85;4.20;;;9.80;99.90;;;;;;1862925;75;21216;-69
2021/04/02 05:48:25;;;;;;;13.50;3.52;;;9.80;99.90;;;;;;1921965;73;21360;-69
2021/04/02 05:50:55;;;;;;;14.65;4.03;;;9.80;99.90;;;;;;1918544;73;21175;-68
2021/04/02 05:53:25;;;;;;;9.88;3.17;;;9.90;99.90;;;;;;1926398;73;21191;-68
2021/04/02 05:55:54;;;;;;;15.88;3.80;;;9.90;99.90;;;;;;1916717;73;21745;-68
2021/04/02 05:58:22;;;;;;;17.40;3.85;;;9.90;99.90;;;;;;1922380;73;21706;-68
2021/04/02 06:00:50;;;;;;;14.28;3.72;;;10.00;99.90;;;;;;1918619;73;21154;-68
2021/04/02 06:03:19;;;;;;;10.38;3.40;;;10.00;99.90;;;;;;1918348;73;21132;-68
2021/04/02 06:05:47;;;;;;;11.25;4.37;;;10.00;99.90;;;;;;1917902;73;21563;-67
2021/04/02 06:08:15;;;;;;;15.18;4.50;;;10.00;99.90;;;;;;1918925;73;21226;-68
2021/04/02 06:10:43;;;;;;;15.90;3.72;;;10.10;99.90;;;;;;1919169;73;21128;-68
2021/04/02 06:13:10;;;;;;;13.80;3.30;;;10.10;99.90;;;;;;1923545;73;21121;-69
2021/04/02 06:15:38;;;;;;;13.83;3.35;;;10.10;99.90;;;;;;1915077;73;21210;-67
2021/04/02 06:18:14;;;;;;;14.03;3.30;;;10.00;99.90;;;;;;1920996;73;21194;-69
2021/04/02 06:20:47;;;;;;;14.87;3.17;;;10.00;99.90;;;;;;1917488;73;21100;-67
2021/04/02 06:23:26;;;;;;;12.13;2.95;;;10.10;99.90;;;;;;1918402;73;21081;-68
2021/04/02 06:25:59;;;;;;;9.88;2.80;;;10.10;99.90;;;;;;1916345;73;21141;-69
2021/04/02 06:28:29;;;;;;;10.82;2.75;;;10.00;99.90;;;;;;1914495;73;21097;-68
2021/04/02 06:31:04;;;;;;;19.98;3.37;;;10.00;99.60;;;;;;1914754;73;21170;-68
2021/04/02 06:33:34;;;;;;;13.72;3.35;;;10.00;99.80;;;;;;1914581;73;21092;-69
2021/04/02 06:36:04;;;;;;;16.48;3.17;;;10.10;99.80;;;;;;1911336;73;21047;-68
2021/04/02 06:38:33;;;;;;;12.53;2.60;;;10.10;99.90;;;;;;1913817;73;21532;-68
2021/04/02 06:41:03;;;;;;;8.45;2.75;;;10.10;99.30;;;;;;1920564;73;21206;-68
2021/04/02 06:43:45;;;;;;;12.82;2.72;;;10.10;98.60;;;;;;1916555;73;21288;-69
2021/04/02 06:46:15;;;;;;;13.43;2.55;;;10.10;98.30;;;;;;1924783;73;21089;-69
2021/04/02 06:48:43;;;;;;;15.88;2.72;;;10.10;98.50;;;;;;1891936;74;21015;-69
2021/04/02 06:51:18;;;;;;;11.68;2.80;;;10.00;98.70;;;;;;1914558;73;21026;-70
2021/04/02 06:53:48;;;;;;;14.15;2.60;;;10.00;98.90;;;;;;1924912;73;21099;-70
2021/04/02 06:56:17;;;;;;;13.05;3.25;;;10.10;98.90;;;;;;1924479;73;21112;-72
2021/04/02 06:58:45;;;;;;;10.65;2.42;;;10.10;98.90;;;;;;1916508;73;21093;-70
2021/04/02 07:01:15;;;;;;;14.43;2.22;;;10.20;98.80;;;;;;1916695;73;21147;-69
2021/04/02 07:03:45;;;;;;;13.93;2.83;;;10.20;98.60;;;;;;1911931;73;21156;-69
2021/04/02 07:06:14;;;;;;;12.20;2.20;;;10.20;98.20;;;;;;1916216;74;21070;-68
2021/04/02 07:08:43;;;;;;;11.35;2.67;;;10.20;98.00;;;;;;1918396;74;21511;-69
2021/04/02 07:11:12;;;;;;;16.25;2.70;;;10.20;97.80;;;;;;1915011;73;21046;-69
2021/04/02 07:13:46;;;;;;;13.15;2.70;;;10.10;97.90;;;;;;1915775;73;21166;-71
2021/04/02 07:16:14;;;;;;;9.40;2.30;;;10.20;98.10;;;;;;1910091;73;21124;-69
2021/04/02 07:18:43;;;;;;;12.85;2.40;;;10.20;97.70;;;;;;1916512;73;21722;-71
2021/04/02 07:21:11;;;;;;;11.20;2.58;;;10.30;97.50;;;;;;1915308;73;21538;-70
2021/04/02 07:23:41;;;;;;;16.40;2.47;;;10.30;97.60;;;;;;1917065;73;21147;-69
2021/04/02 07:26:13;;;;;;;13.15;2.35;;;10.20;97.60;;;;;;1914914;73;21190;-69
2021/04/02 07:28:45;;;;;;;23.45;3.00;;;10.30;97.90;;;;;;1915952;73;21591;-70
2021/04/02 07:31:14;;;;;;;8.48;2.27;;;10.30;97.50;;;;;;1908712;73;21084;-69
2021/04/02 07:33:45;;;;;;;12.65;2.50;;;10.30;97.30;;;;;;1914539;73;21119;-70
2021/04/02 07:36:15;;;;;;;12.55;2.55;;;10.40;97.40;;;;;;1919015;73;21175;-69
2021/04/02 07:38:48;;;;;;;13.88;3.00;;;10.30;97.40;;;;;;1913756;73;22247;-68
2021/04/02 07:41:18;;;;;;;14.65;2.92;;;10.30;96.70;;;;;;1914701;73;21101;-69
2021/04/02 07:43:55;;;;;;;11.00;2.52;;;10.40;96.90;;;;;;1913336;73;21177;-70
2021/04/02 07:46:28;;;;;;;16.93;2.90;;;10.30;96.20;;;;;;1913040;73;21165;-69
2021/04/02 07:49:07;;;;;;;19.15;3.05;;;10.30;95.60;;;;;;1913581;73;21053;-68
2021/04/02 07:51:45;;;;;;;12.80;2.75;;;10.30;95.40;;;;;;1917032;73;21564;-67
2021/04/02 07:54:24;;;;;;;17.90;3.77;;;10.30;94.70;;;;;;1916740;73;21135;-67
2021/04/02 07:56:54;;;;;;;14.63;2.50;;;10.30;94.60;;;;;;1893530;73;21132;-67
2021/04/02 07:59:40;;;;;;;19.73;3.25;;;10.40;94.50;;;;;;1909979;73;21034;-68
2021/04/02 08:02:10;;;;;;;10.05;2.12;;;10.30;94.50;;;;;;1910812;73;21101;-68
2021/04/02 08:04:43;;;;;;;16.80;2.42;;;10.40;94.40;;;;;;1911070;73;21553;-68
2021/04/02 08:07:16;;;;;;;15.80;3.15;;;10.40;94.30;;;;;;1912337;73;21482;-67
2021/04/02 08:09:49;;;;;;;16.97;2.60;;;10.50;94.40;;;;;;1911250;73;21101;-69
2021/04/02 08:12:20;;;;;;;15.10;2.80;;;10.60;94.90;;;;;;1910482;73;21121;-69
2021/04/02 08:14:50;;;;;;;11.65;2.45;;;10.60;94.10;;;;;;1912517;73;21058;-69
2021/04/02 08:17:23;;;;;;;18.60;2.72;;;10.70;93.80;;;;;;1909694;73;21125;-68
2021/04/02 08:19:52;;;;;;;14.58;2.95;;;10.70;94.00;;;;;;1910053;73;21175;-68
2021/04/02 08:22:21;;;;;;;16.95;3.30;;;10.80;94.70;;;;;;1907388;73;21132;-69
2021/04/02 08:24:50;;;;;;;16.93;3.50;;;10.80;94.60;;;;;;1916162;73;21058;-69
2021/04/02 08:27:18;;;;;;;14.43;2.52;;;10.80;94.20;;;;;;1912981;73;21156;-69
2021/04/02 08:30:01;;;;;;;16.75;3.08;;;10.90;94.40;;;;;;1913571;73;21061;-68
2021/04/02 08:32:18;;;;;;;24.35;3.30;;;10.90;94.10;;;;;;1917337;73;21155;-69
2021/04/02 08:34:47;;;;;;;13.68;2.67;;;10.90;94.30;;;;;;1914561;73;21080;-73
2021/04/02 08:37:16;;;;;;;13.90;2.65;;;11.00;93.70;;;;;;1915595;73;21253;-72
2021/04/02 08:39:44;;;;;;;18.75;3.17;;;11.10;93.10;;;;;;1915930;73;21736;-68
2021/04/02 08:42:13;;;;;;;14.35;2.75;;;11.10;93.00;;;;;;1916809;73;21042;-68
2021/04/02 08:44:43;;;;;;;14.53;3.40;;;11.20;93.30;;;;;;1912431;73;21276;-68
2021/04/02 08:47:14;;;;;;;14.68;3.65;;;11.30;93.70;;;;;;1910621;73;21149;-69
2021/04/02 08:49:47;;;;;;;15.48;2.42;;;11.40;93.60;;;;;;1911907;73;21638;-69
2021/04/02 08:52:14;;;;;;;;;;;11.50;93.20;;;;;;1914009;73;21246;-69
2021/04/02 08:54:43;;;;;;;26.40;3.25;;;11.50;93.00;;;;;;1909650;73;20227;-67
2021/04/02 08:57:13;;;;;;;17.37;3.67;;;11.50;92.50;;;;;;1913085;73;21165;-68
2021/04/02 08:59:44;;;;;;;15.50;3.40;;;11.50;93.20;;;;;;1910764;73;21194;-69
2021/04/02 09:02:14;;;;;;;18.65;3.40;;;11.60;93.60;;;;;;1912223;73;21583;-68
2021/04/02 09:04:44;;;;;;;15.15;3.00;;;11.60;93.20;;;;;;1914551;73;21594;-68
2021/04/02 09:07:12;;;;;;;13.68;3.05;;;11.60;92.30;;;;;;1915221;73;21230;-69
2021/04/02 09:09:45;;;;;;;16.50;3.02;;;11.60;92.30;;;;;;1912997;73;21051;-69
2021/04/02 09:12:19;;;;;;;14.20;2.77;;;11.60;92.30;;;;;;1917942;73;21731;-69
2021/04/02 09:14:49;;;;;;;17.07;3.65;;;11.60;92.30;;;;;;1911932;73;21175;-68
2021/04/02 09:17:22;;;;;;;16.90;3.17;;;11.70;92.90;;;;;;1912076;73;21183;-68
2021/04/02 09:19:51;;;;;;;16.75;2.95;;;11.70;92.80;;;;;;1912266;73;21089;-68
2021/04/02 09:22:19;;;;;;;17.15;3.83;;;11.80;92.50;;;;;;1917405;73;21575;-68
2021/04/02 09:24:48;;;;;;;13.50;2.42;;;11.90;91.90;;;;;;1914497;73;21144;-67
2021/04/02 09:27:18;;;;;;;18.20;3.25;;;11.80;91.80;;;;;;1916403;73;22160;-68
2021/04/02 09:30:01;;;;;;;18.05;3.50;;;11.80;91.80;;;;;;1916202;73;21161;-68
2021/04/02 09:32:21;;;;;;;17.20;2.95;;;11.80;91.80;;;;;;1910520;73;21152;-69
2021/04/02 09:34:49;;;;;;;26.45;3.85;;;11.80;91.90;;;;;;1918517;73;21104;-69
2021/04/02 09:37:17;;;;;;;14.00;3.05;;;11.80;91.70;;;;;;1918527;73;21077;-70
2021/04/02 09:39:45;;;;;;;13.78;3.15;;;11.70;92.00;;;;;;1913053;73;21105;-70
2021/04/02 09:42:15;;;;;;;18.27;3.55;;;11.60;92.40;;;;;;1914082;73;21109;-70
2021/04/02 09:44:47;;;;;;;19.23;3.22;;;11.60;92.70;;;;;;1915725;73;21178;-69
2021/04/02 09:47:15;;;;;;;21.30;3.33;;;11.60;93.00;;;;;;1917236;73;21151;-70
2021/04/02 09:49:44;;;;;;;14.28;3.12;;;11.50;93.10;;;;;;1914304;73;21037;-69
2021/04/02 09:52:12;;;;;;;16.60;3.10;;;11.50;93.30;;;;;;1915617;73;21022;-70
2021/04/02 09:54:39;;;;;;;19.90;2.85;;;11.50;93.20;;;;;;1913371;73;21117;-70
2021/04/02 09:57:08;;;;;;;13.35;2.77;;;11.40;93.20;;;;;;1916283;73;21132;-70
2021/04/02 09:59:37;;;;;;;15.65;3.15;;;11.40;93.50;;;;;;1914659;73;21085;-69
2021/04/02 10:02:05;;;;;;;18.98;3.52;;;11.40;93.50;;;;;;1915893;73;21665;-70
2021/04/02 10:04:32;;;;;;;16.20;3.00;;;11.30;93.90;;;;;;1916828;73;21131;-70
2021/04/02 10:07:01;;;;;;;20.57;3.80;;;11.30;94.00;;;;;;1919758;73;21109;-70
2021/04/02 10:09:29;;;;;;;14.18;3.25;;;11.30;93.80;;;;;;1915516;73;21038;-71
2021/04/02 10:11:57;;;;;;;21.37;3.17;;;11.30;93.90;;;;;;1914912;73;21178;-70
2021/04/02 10:14:24;;;;;;;12.63;2.40;;;11.30;93.40;;;;;;1914678;73;22401;-69
2021/04/02 10:16:52;;;;;;;14.05;3.35;;;11.20;93.50;;;;;;1914212;73;21143;-70
2021/04/02 10:19:19;;;;;;;15.50;3.25;;;11.20;93.30;;;;;;1915058;73;21133;-69
2021/04/02 10:21:47;;;;;;;15.60;3.25;;;11.20;93.20;;;;;;1916871;73;21022;-69
2021/04/02 10:24:14;;;;;;;13.22;2.92;;;11.20;93.40;;;;;;1914817;73;21143;-70
2021/04/02 10:26:43;;;;;;;18.20;3.83;;;11.20;93.40;;;;;;1909849;73;21799;-70
2021/04/02 10:29:10;;;;;;;19.95;3.25;;;11.30;93.40;;;;;;1914304;73;21119;-70
2021/04/02 10:31:39;;;;;;;12.10;3.17;;;11.30;93.20;;;;;;1915728;73;21597;-70
2021/04/02 10:34:07;;;;;;;13.98;3.42;;;11.30;93.10;;;;;;1913882;73;21252;-70
2021/04/02 10:36:34;;;;;;;18.10;3.60;;;11.30;93.30;;;;;;1918095;73;21145;-70
2021/04/02 10:39:02;;;;;;;20.92;3.50;;;11.30;92.90;;;;;;1915339;73;22648;-69
2021/04/02 10:41:29;;;;;;;13.20;3.20;;;11.30;92.90;;;;;;1915191;73;21062;-68
2021/04/02 10:43:57;;;;;;;17.75;3.42;;;11.30;93.00;;;;;;1916723;73;21142;-69
2021/04/02 10:46:24;;;;;;;18.60;3.60;;;11.30;92.80;;;;;;1911718;73;21515;-68
2021/04/02 10:48:52;;;;;;;13.85;3.58;;;11.30;92.80;;;;;;1916239;73;21102;-67
2021/04/02 10:51:21;;;;;;;17.92;4.08;;;11.20;92.90;;;;;;1911268;73;21116;-71
2021/04/02 10:53:49;;;;;;;10.40;3.15;;;11.20;92.80;;;;;;1916275;73;21159;-69
2021/04/02 10:56:16;;;;;;;19.23;3.20;;;11.20;92.80;;;;;;1917147;73;21257;-69
2021/04/02 10:58:44;;;;;;;11.93;3.00;;;11.30;92.80;;;;;;1915586;73;21092;-69
2021/04/02 11:01:11;;;;;;;16.42;3.17;;;11.30;92.40;;;;;;1909405;73;21429;-69
2021/04/02 11:03:39;;;;;;;11.93;3.00;;;11.30;92.40;;;;;;1915262;73;21555;-69
2021/04/02 11:06:06;;;;;;;13.80;2.87;;;11.40;92.40;;;;;;1913543;73;21124;-70
2021/04/02 11:08:34;;;;;;;13.62;2.92;;;11.40;92.70;;;;;;1916691;73;21105;-71
2021/04/02 11:11:01;;;;;;;14.73;3.20;;;11.40;92.40;;;;;;1915848;73;21141;-71
2021/04/02 11:13:29;;;;;;;10.13;2.72;;;11.50;92.20;;;;;;1914427;73;21078;-69
2021/04/02 11:15:56;;;;;;;16.90;3.27;;;11.50;91.90;;;;;;1913450;73;21177;-68
2021/04/02 11:18:24;;;;;;;14.75;2.70;;;11.60;92.40;;;;;;1914992;73;21054;-69
2021/04/02 11:20:51;;;;;;;15.95;3.40;;;11.60;92.60;;;;;;1916968;73;21077;-70
2021/04/02 11:23:19;;;;;;;18.45;3.52;;;11.70;92.40;;;;;;1914762;73;21188;-67
2021/04/02 11:25:47;;;;;;;15.45;2.62;;;11.70;92.10;;;;;;1912724;73;21077;-69
2021/04/02 11:28:16;;;;;;;17.00;2.95;;;11.60;92.20;;;;;;1916168;73;21135;-69
2021/04/02 11:30:43;;;;;;;12.53;2.70;;;11.60;92.40;;;;;;1916564;73;21701;-71
2021/04/02 11:33:11;;;;;;;10.80;2.62;;;11.70;92.10;;;;;;1915426;73;21721;-68
2021/04/02 11:35:38;;;;;;;9.83;2.35;;;11.80;91.90;;;;;;1914924;73;21117;-70
2021/04/02 11:38:06;;;;;;;9.43;2.52;;;11.80;91.60;;;;;;1917483;73;21344;-68
2021/04/02 11:40:34;;;;;;;18.50;3.25;;;11.80;91.60;;;;;;1912251;73;21539;-69
2021/04/02 11:43:02;;;;;;;12.35;2.70;;;11.90;91.70;;;;;;1918488;73;21113;-68
2021/04/02 11:45:29;;;;;;;8.68;2.42;;;11.80;91.30;;;;;;1917884;73;21119;-69
2021/04/02 11:47:57;;;;;;;14.23;2.60;;;11.90;91.30;;;;;;1913609;73;21192;-68
2021/04/02 11:50:24;;;;;;;10.08;2.20;;;11.90;90.90;;;;;;1914784;73;21435;-68
2021/04/02 11:52:52;;;;;;;9.18;2.20;;;12.00;90.30;;;;;;1917256;73;21074;-69
2021/04/02 11:55:20;;;;;;;15.28;2.45;;;12.00;90.40;;;;;;1916002;73;21210;-68
2021/04/02 11:57:48;;;;;;;15.60;2.42;;;12.00;90.40;;;;;;1910859;73;21207;-71
2021/04/02 12:00:17;;;;;;;19.37;2.72;;;12.00;90.80;;;;;;1913703;73;21604;-70
2021/04/02 12:02:45;;;;;;;12.30;2.30;;;12.00;91.10;;;;;;1912295;73;22091;-67
2021/04/02 12:05:15;;;;;;;10.63;2.35;;;12.00;90.90;;;;;;1917878;73;21372;-67
2021/04/02 12:07:43;;;;;;;12.70;2.20;;;12.00;90.50;;;;;;1914498;73;21239;-68
2021/04/02 12:10:11;;;;;;;8.55;2.00;;;11.90;90.40;;;;;;1918516;73;22634;-68
2021/04/02 12:12:39;;;;;;;13.00;2.05;;;11.90;90.90;;;;;;1915385;73;21195;-67
2021/04/02 12:15:07;;;;;;;11.57;1.98;;;12.00;91.20;;;;;;1919854;73;21159;-67
2021/04/02 12:17:36;;;;;;;12.35;2.22;;;12.00;90.80;;;;;;1916803;73;21086;-67
2021/04/02 12:20:13;;;;;;;11.75;2.20;;;12.00;90.50;;;;;;1917769;73;21122;-68
2021/04/02 12:22:42;;;;;;;11.68;2.33;;;12.00;91.00;;;;;;1913206;74;21680;-68
2021/04/02 12:25:12;;;;;;;11.70;1.85;;;12.00;90.90;;;;;;1918305;73;21105;-69
2021/04/02 12:27:39;;;;;;;12.60;2.17;;;11.90;90.70;;;;;;1917750;73;21180;-69
2021/04/02 12:30:09;;;;;;;12.68;2.12;;;11.90;91.00;;;;;;1920100;73;21159;-69
2021/04/02 12:32:37;;;;;;;12.10;2.40;;;11.90;91.30;;;;;;1917148;74;21210;-68
2021/04/02 12:35:05;;;;;;;13.03;2.40;;;12.00;91.40;;;;;;1917209;74;21050;-68
2021/04/02 12:37:33;;;;;;;11.28;2.20;;;12.00;91.50;;;;;;1916833;73;22361;-68
2021/04/02 12:40:02;;;;;;;10.35;1.90;;;12.00;91.30;;;;;;1913922;74;21559;-69
2021/04/02 12:42:30;;;;;;;13.45;2.70;;;12.00;91.10;;;;;;1917765;73;21276;-68
2021/04/02 12:44:57;;;;;;;11.08;2.12;;;12.00;91.30;;;;;;1917708;73;21203;-69
2021/04/02 12:47:25;;;;;;;10.58;1.98;;;12.00;91.00;;;;;;1916284;74;21262;-68
2021/04/02 12:49:52;;;;;;;9.05;2.15;;;11.90;91.50;;;;;;1916471;74;21101;-68
2021/04/02 12:52:20;;;;;;;16.30;2.25;;;12.00;91.50;;;;;;1917306;74;21721;-68
2021/04/02 12:54:47;;;;;;;8.55;2.30;;;12.00;91.40;;;;;;1914983;73;21073;-68